createdAt,value
2023-02-01T00:01:45.443Z,101062.69
2023-02-01T00:04:14.184Z,101074.53
2023-02-01T00:06:42.854Z,101075.59
2023-02-01T00:09:11.631Z,101082.66
2023-02-01T00:11:40.510Z,101077.75
2023-02-01T00:14:10.519Z,101069.06
2023-02-01T00:16:39.221Z,101074.53
2023-02-01T00:19:11.888Z,101068.56
2023-02-01T00:21:40.682Z,101077.06
2023-02-01T00:24:10.845Z,101069.84
2023-02-01T00:26:42.001Z,101065.59
2023-02-01T00:29:15.141Z,101057.72
2023-02-01T00:31:44.402Z,101060.09
2023-02-01T00:34:15.998Z,101054.34
2023-02-01T00:36:45.745Z,101033.28
2023-02-01T00:39:14.903Z,101034.88
2023-02-01T00:41:43.862Z,101026.50
2023-02-01T00:44:13.883Z,101029.09
2023-02-01T00:46:42.477Z,101039.38
2023-02-01T00:49:11.118Z,101038.28
2023-02-01T00:51:39.855Z,101044.28
2023-02-01T00:54:08.570Z,101041.72
2023-02-01T00:56:37.363Z,101035.75
2023-02-01T00:59:06.083Z,101048.22
2023-02-01T01:01:36.372Z,101043.28
2023-02-01T01:04:05.036Z,101045.50
2023-02-01T01:06:35.312Z,101036.44
2023-02-01T01:09:06.025Z,101041.81
2023-02-01T01:11:37.414Z,101035.59
2023-02-01T01:14:08.202Z,101040.28
2023-02-01T01:16:38.746Z,101038.06
2023-02-01T01:19:07.736Z,101042.88
2023-02-01T01:21:36.305Z,101039.28
2023-02-01T01:24:05.486Z,101039.09
2023-02-01T01:26:34.217Z,101042.31
2023-02-01T01:29:03.158Z,101034.78
2023-02-01T01:31:32.805Z,101034.78
2023-02-01T01:34:03.076Z,101028.75
2023-02-01T01:36:31.842Z,101031.25
2023-02-01T01:39:00.437Z,101028.69
2023-02-01T01:41:33.183Z,101033.53
2023-02-01T01:44:03.953Z,101035.50
2023-02-01T01:46:36.559Z,101036.63
2023-02-01T01:49:10.781Z,101027.94
2023-02-01T01:51:45.987Z,101020.47
2023-02-01T01:54:19.287Z,101021.13
2023-02-01T01:56:53.555Z,101026.09
2023-02-01T01:59:24.061Z,101020.69
2023-02-01T02:01:53.731Z,101025.47
2023-02-01T02:04:24.740Z,101017.03
2023-02-01T02:07:00.346Z,101017.19
2023-02-01T02:09:29.155Z,101013.22
2023-02-01T02:11:57.890Z,101014.81
2023-02-01T02:14:28.481Z,101020.13
2023-02-01T02:17:16.605Z,101017.34
2023-02-01T02:20:30.171Z,101016.91
2023-02-01T02:23:32.352Z,100992.63
2023-02-01T02:26:24.622Z,100997.47
2023-02-01T02:29:15.203Z,100998.28
2023-02-01T02:32:06.186Z,100990.88
2023-02-01T02:34:41.342Z,101000.94
2023-02-01T02:37:17.832Z,100998.19
2023-02-01T02:39:55.363Z,100990.41
2023-02-01T02:42:49.040Z,100994.25
2023-02-01T02:45:43.135Z,100971.69
2023-02-01T02:48:20.079Z,100979.38
2023-02-01T02:51:18.870Z,100973.66
2023-02-01T02:54:11.969Z,100979.31
2023-02-01T02:56:59.734Z,100979.00
2023-02-01T02:59:48.105Z,100969.94
2023-02-01T03:02:35.810Z,100965.09
2023-02-01T03:05:04.704Z,100962.88
2023-02-01T03:07:57.601Z,100965.34
2023-02-01T03:10:33.001Z,100955.00
2023-02-01T03:13:07.870Z,100954.53
2023-02-01T03:15:40.611Z,100946.97
2023-02-01T03:18:15.272Z,100946.22
2023-02-01T03:20:48.994Z,100946.34
2023-02-01T03:23:23.627Z,100949.09
2023-02-01T03:25:55.302Z,100939.88
2023-02-01T03:28:27.561Z,100949.06
2023-02-01T03:30:56.799Z,100948.03
2023-02-01T03:33:28.506Z,100942.25
2023-02-01T03:36:07.562Z,100942.00
2023-02-01T03:38:42.039Z,100930.59
2023-02-01T03:41:15.547Z,100939.78
2023-02-01T03:43:53.516Z,100939.53
2023-02-01T03:46:33.592Z,100934.94
2023-02-01T03:49:05.584Z,100926.44
2023-02-01T03:51:35.724Z,100917.03
2023-02-01T03:54:09.225Z,100898.31
2023-02-01T03:56:40.187Z,100904.06
2023-02-01T03:59:10.340Z,100920.38
2023-02-01T04:01:39.342Z,100916.97
2023-02-01T04:04:08.396Z,100920.69
2023-02-01T04:06:37.350Z,100929.19
2023-02-01T04:09:07.441Z,100924.69
2023-02-01T04:11:36.020Z,100919.75
2023-02-01T04:14:05.551Z,100915.97
2023-02-01T04:16:34.848Z,100913.00
2023-02-01T04:19:03.615Z,100920.63
2023-02-01T04:21:33.224Z,100905.19
2023-02-01T04:24:02.021Z,100908.34
2023-02-01T04:26:32.495Z,100904.63
2023-02-01T04:29:01.441Z,100914.59
2023-02-01T04:31:30.366Z,100912.69
2023-02-01T04:33:59.424Z,100909.97
2023-02-01T04:36:28.540Z,100903.41
2023-02-01T04:38:57.097Z,100904.56
2023-02-01T04:41:25.778Z,100918.69
2023-02-01T04:43:55.812Z,100917.03
2023-02-01T04:46:24.676Z,100918.19
2023-02-01T04:48:53.320Z,100912.19
2023-02-01T04:51:22.102Z,100913.06
2023-02-01T04:53:50.653Z,100909.16
2023-02-01T04:56:19.289Z,100910.59
2023-02-01T04:58:48.079Z,100905.69
2023-02-01T05:01:17.979Z,100910.28
2023-02-01T05:03:46.769Z,100917.53
2023-02-01T05:06:15.624Z,100917.69
2023-02-01T05:08:44.628Z,100921.31
2023-02-01T05:11:34.013Z,100919.69
2023-02-01T05:14:02.639Z,100915.47
2023-02-01T05:16:33.224Z,100918.75
2023-02-01T05:19:01.768Z,100927.38
2023-02-01T05:21:30.248Z,100917.69
2023-02-01T05:24:20.786Z,100921.19
2023-02-01T05:26:50.330Z,100926.56
2023-02-01T05:29:19.510Z,100915.72
2023-02-01T05:31:50.227Z,100921.97
2023-02-01T05:34:19.524Z,100912.25
2023-02-01T05:36:48.505Z,100915.22
2023-02-01T05:39:17.310Z,100916.03
2023-02-01T05:41:45.930Z,100922.56
2023-02-01T05:44:14.480Z,100920.97
2023-02-01T05:46:43.168Z,100902.22
2023-02-01T05:49:13.480Z,100887.09
2023-02-01T05:51:42.404Z,100894.09
2023-02-01T05:54:11.805Z,100894.50
2023-02-01T05:56:41.754Z,100892.84
2023-02-01T05:59:11.463Z,100889.69
2023-02-01T06:01:40.192Z,100879.53
2023-02-01T06:04:09.378Z,100898.00
2023-02-01T06:06:39.542Z,100901.16
2023-02-01T06:09:08.131Z,100899.44
2023-02-01T06:11:36.641Z,100892.06
2023-02-01T06:14:05.190Z,100894.78
2023-02-01T06:16:34.044Z,100887.72
2023-02-01T06:19:02.552Z,100902.09
2023-02-01T06:21:31.141Z,100906.44
2023-02-01T06:24:01.149Z,100904.56
2023-02-01T06:26:30.099Z,100906.13
2023-02-01T06:28:58.861Z,100910.47
2023-02-01T06:31:27.694Z,100924.59
2023-02-01T06:33:56.363Z,100932.22
2023-02-01T06:36:24.224Z,100907.03
2023-02-01T06:38:53.855Z,100915.97
2023-02-01T06:41:24.232Z,100914.91
2023-02-01T06:43:52.977Z,100902.09
2023-02-01T06:46:21.691Z,100907.19
2023-02-01T06:48:52.139Z,100911.56
2023-02-01T06:51:22.854Z,100911.56
2023-02-01T06:53:51.891Z,100905.88
2023-02-01T06:56:23.187Z,100908.34
2023-02-01T06:58:53.441Z,100919.19
2023-02-01T07:01:27.000Z,100919.00
2023-02-01T07:03:55.710Z,100926.09
2023-02-01T07:06:24.679Z,100930.66
2023-02-01T07:08:56.672Z,100943.41
2023-02-01T07:11:28.394Z,100936.09
2023-02-01T07:13:59.902Z,100929.34
2023-02-01T07:16:30.082Z,100937.00
2023-02-01T07:19:00.674Z,100940.69
2023-02-01T07:21:29.803Z,100940.19
2023-02-01T07:23:58.410Z,100938.56
2023-02-01T07:26:27.072Z,100941.59
2023-02-01T07:28:55.870Z,100955.22
2023-02-01T07:31:27.505Z,100944.94
2023-02-01T07:33:57.302Z,100951.44
2023-02-01T07:36:26.624Z,100956.53
2023-02-01T07:38:56.803Z,100958.19
2023-02-01T07:41:25.566Z,100958.44
2023-02-01T07:43:54.833Z,100956.47
2023-02-01T07:46:25.099Z,100961.47
2023-02-01T07:48:53.767Z,100958.00
2023-02-01T07:51:22.319Z,100956.84
2023-02-01T07:53:51.038Z,100967.59
2023-02-01T07:56:23.407Z,100962.28
2023-02-01T07:58:53.470Z,100966.88
2023-02-01T08:01:25.299Z,100953.25
2023-02-01T08:03:57.229Z,100952.69
2023-02-01T08:06:26.832Z,100957.38
2023-02-01T08:08:55.984Z,100962.78
2023-02-01T08:11:26.421Z,100954.91
2023-02-01T08:13:55.687Z,100965.56
2023-02-01T08:16:25.413Z,100972.88
2023-02-01T08:18:55.828Z,100977.88
2023-02-01T08:21:26.638Z,100975.16
2023-02-01T08:23:57.183Z,100965.69
2023-02-01T08:26:27.947Z,100972.75
2023-02-01T08:28:58.992Z,100978.88
2023-02-01T08:31:29.306Z,100973.06
2023-02-01T08:34:01.834Z,100973.34
2023-02-01T08:36:32.545Z,100980.97
2023-02-01T08:39:01.439Z,100984.00
2023-02-01T08:41:32.145Z,100991.59
2023-02-01T08:44:01.205Z,100987.16
2023-02-01T08:46:30.121Z,100989.34
2023-02-01T08:49:00.219Z,100980.41
2023-02-01T08:51:29.010Z,100988.00
2023-02-01T08:53:57.672Z,100995.81
2023-02-01T08:56:26.484Z,100994.16
2023-02-01T08:58:55.053Z,100987.22
2023-02-01T09:01:23.729Z,100989.94
2023-02-01T09:03:52.422Z,100981.47
2023-02-01T09:06:23.046Z,100980.16
2023-02-01T09:08:51.706Z,100975.28
2023-02-01T09:11:21.754Z,100980.44
2023-02-01T09:13:51.275Z,100975.63
2023-02-01T09:16:21.120Z,100976.44
2023-02-01T09:18:56.623Z,100952.06
2023-02-01T09:21:38.994Z,100949.91
2023-02-01T09:24:08.822Z,100954.88
2023-02-01T09:26:38.553Z,100958.94
2023-02-01T09:29:11.985Z,100947.75
2023-02-01T09:31:44.201Z,100962.50
2023-02-01T09:34:18.586Z,100947.34
2023-02-01T09:36:48.758Z,100954.50
2023-02-01T09:39:17.525Z,100957.06
2023-02-01T09:41:58.664Z,100961.97
2023-02-01T09:44:44.362Z,100968.53
2023-02-01T09:47:16.401Z,100956.19
2023-02-01T09:49:53.834Z,100950.63
2023-02-01T09:52:29.961Z,100948.94
2023-02-01T09:55:03.723Z,100951.94
2023-02-01T09:57:45.646Z,100953.34
2023-02-01T10:00:22.450Z,100952.59
2023-02-01T10:02:51.888Z,100950.59
2023-02-01T10:05:33.520Z,100943.25
2023-02-01T10:08:11.478Z,100933.59
2023-02-01T10:10:45.958Z,100949.16
2023-02-01T10:13:27.253Z,100943.09
2023-02-01T10:16:07.628Z,100949.69
2023-02-01T10:18:49.759Z,100939.72
2023-02-01T10:21:44.746Z,100926.44
2023-02-01T10:24:37.261Z,100948.78
2023-02-01T10:27:15.685Z,100964.47
2023-02-01T10:29:47.888Z,100955.72
2023-02-01T10:32:19.011Z,100955.31
2023-02-01T10:34:53.824Z,100943.25
2023-02-01T10:37:28.656Z,100945.53
2023-02-01T10:40:01.811Z,100942.50
2023-02-01T10:42:33.174Z,100943.75
2023-02-01T10:45:04.630Z,100946.78
2023-02-01T10:47:33.441Z,100942.00
2023-02-01T10:50:16.459Z,100950.50
2023-02-01T10:52:50.524Z,100943.13
2023-02-01T10:55:41.444Z,100939.41
2023-02-01T10:58:17.782Z,100941.06
2023-02-01T11:00:50.161Z,100945.94
2023-02-01T11:03:24.381Z,100934.84
2023-02-01T11:05:53.176Z,100934.56
2023-02-01T11:08:21.825Z,100925.25
2023-02-01T11:11:00.244Z,100922.31
2023-02-01T11:13:34.274Z,100925.59
2023-02-01T11:16:05.319Z,100917.44
2023-02-01T11:18:38.524Z,100907.69
2023-02-01T11:21:08.909Z,100908.16
2023-02-01T11:23:43.694Z,100900.09
2023-02-01T11:26:16.861Z,100892.56
2023-02-01T11:28:55.365Z,100887.47
2023-02-01T11:31:25.904Z,100873.69
2023-02-01T11:34:00.372Z,100879.94
2023-02-01T11:36:32.669Z,100867.41
2023-02-01T11:39:21.355Z,100860.91
2023-02-01T11:42:02.995Z,100858.69
2023-02-01T11:44:36.361Z,100858.69
2023-02-01T11:47:24.714Z,100848.84
2023-02-01T11:49:55.183Z,100863.00
2023-02-01T11:52:44.580Z,100855.22
2023-02-01T11:55:37.863Z,100846.91
2023-02-01T11:58:23.139Z,100874.94
2023-02-01T12:01:07.107Z,100870.78
2023-02-01T12:04:02.764Z,100862.81
2023-02-01T12:06:40.978Z,100873.53
2023-02-01T12:09:43.674Z,100866.88
2023-02-01T12:12:20.921Z,100855.97
2023-02-01T12:15:05.705Z,100851.06
2023-02-01T12:17:51.158Z,100848.28
2023-02-01T12:20:41.793Z,100847.19
2023-02-01T12:23:25.461Z,100843.94
2023-02-01T12:26:07.392Z,100844.00
2023-02-01T12:28:58.927Z,100832.13
2023-02-01T12:31:48.423Z,100824.34
2023-02-01T12:34:37.008Z,100826.06
2023-02-01T12:37:27.821Z,100811.81
2023-02-01T12:40:13.039Z,100817.56
2023-02-01T12:42:48.328Z,100808.56
2023-02-01T12:45:25.501Z,100812.13
2023-02-01T12:47:59.720Z,100821.09
2023-02-01T12:50:33.855Z,100830.59
2023-02-01T12:53:15.436Z,100837.31
2023-02-01T12:55:51.735Z,100828.41
2023-02-01T12:58:25.416Z,100849.56
2023-02-01T13:01:01.582Z,100837.06
2023-02-01T13:03:38.806Z,100845.50
2023-02-01T13:06:12.507Z,100822.69
2023-02-01T13:08:49.641Z,100820.31
2023-02-01T13:11:22.932Z,100813.59
2023-02-01T13:14:02.931Z,100805.72
2023-02-01T13:16:34.585Z,100814.69
2023-02-01T13:19:15.054Z,100818.50
2023-02-01T13:21:50.163Z,100820.19
2023-02-01T13:24:32.141Z,100808.81
2023-02-01T13:27:03.083Z,100811.31
2023-02-01T13:29:33.607Z,100808.97
2023-02-01T13:32:20.742Z,100821.00
2023-02-01T13:35:13.925Z,100790.31
2023-02-01T13:38:27.528Z,100760.19
2023-02-01T13:41:13.754Z,100793.84
2023-02-01T13:43:46.472Z,100812.94
2023-02-01T13:46:17.190Z,100815.63
2023-02-01T13:48:51.862Z,100808.31
2023-02-01T13:51:36.436Z,100786.09
2023-02-01T13:54:07.141Z,100798.84
2023-02-01T13:56:44.248Z,100802.66
2023-02-01T13:59:55.768Z,100794.53
2023-02-01T14:02:52.103Z,100808.09
2023-02-01T14:06:10.869Z,100799.94
2023-02-01T14:08:44.852Z,100800.75
2023-02-01T14:11:40.194Z,100810.00
2023-02-01T14:14:45.172Z,100805.41
2023-02-01T14:17:43.135Z,100810.06
2023-02-01T14:20:55.464Z,100820.69
2023-02-01T14:23:28.030Z,100826.13
2023-02-01T14:26:10.381Z,100823.41
2023-02-01T14:28:45.396Z,100817.94
2023-02-01T14:31:34.809Z,100821.16
2023-02-01T14:34:17.295Z,100832.00
2023-02-01T14:36:51.245Z,100830.34
2023-02-01T14:39:40.540Z,100837.13
2023-02-01T14:42:24.681Z,100827.06
2023-02-01T14:44:59.268Z,100846.13
2023-02-01T14:47:35.840Z,100833.09
2023-02-01T14:50:20.065Z,100834.44
2023-02-01T14:52:54.760Z,100846.66
2023-02-01T14:55:29.271Z,100847.22
2023-02-01T14:58:02.451Z,100848.84
2023-02-01T15:00:34.290Z,100834.19
2023-02-01T15:03:36.709Z,100849.41
2023-02-01T15:06:25.325Z,100841.84
2023-02-01T15:08:58.131Z,100839.66
2023-02-01T15:11:28.332Z,100845.38
2023-02-01T15:13:58.285Z,100859.00
2023-02-01T15:16:28.648Z,100849.16
2023-02-01T15:19:11.474Z,100859.69
2023-02-01T15:21:50.673Z,100847.69
2023-02-01T15:24:25.853Z,100850.94
2023-02-01T15:26:56.551Z,100857.44
2023-02-01T15:29:31.901Z,100856.41
2023-02-01T15:32:01.524Z,100854.25
2023-02-01T15:34:48.735Z,100855.09
2023-02-01T15:37:21.278Z,100840.69
2023-02-01T15:40:09.149Z,100842.56
2023-02-01T15:42:41.992Z,100838.00
2023-02-01T15:45:19.197Z,100838.00
2023-02-01T15:47:50.452Z,100839.13
2023-02-01T15:50:25.410Z,100836.41
2023-02-01T15:52:57.347Z,100843.25
2023-02-01T15:55:37.562Z,100839.69
2023-02-01T15:58:08.392Z,100850.84
2023-02-01T16:00:45.598Z,100843.22
2023-02-01T16:03:28.813Z,100841.53
2023-02-01T16:05:59.805Z,100834.19
2023-02-01T16:08:32.911Z,100828.78
2023-02-01T16:11:03.934Z,100844.53
2023-02-01T16:13:32.593Z,100844.56
2023-02-01T16:16:01.230Z,100845.66
2023-02-01T16:18:29.830Z,100846.75
2023-02-01T16:20:58.672Z,100835.88
2023-02-01T16:23:27.257Z,100844.84
2023-02-01T16:25:57.227Z,100845.09
2023-02-01T16:28:26.395Z,100851.56
2023-02-01T16:30:54.947Z,100873.59
2023-02-01T16:33:23.993Z,100861.84
2023-02-01T16:35:53.701Z,100868.28
2023-02-01T16:38:24.599Z,100874.13
2023-02-01T16:40:53.427Z,100874.00
2023-02-01T16:43:25.209Z,100871.16
2023-02-01T16:46:00.742Z,100864.03
2023-02-01T16:48:31.896Z,100868.84
2023-02-01T16:51:02.734Z,100885.69
2023-02-01T16:53:41.705Z,100976.56
2023-02-01T16:56:19.984Z,100968.28
2023-02-01T16:58:50.318Z,100939.72
2023-02-01T17:01:21.075Z,100953.03
2023-02-01T17:03:50.882Z,100950.00
2023-02-01T17:06:22.551Z,100960.50
2023-02-01T17:08:53.268Z,100948.38
2023-02-01T17:11:22.772Z,100964.81
2023-02-01T17:13:52.819Z,100953.66
2023-02-01T17:16:27.020Z,100947.84
2023-02-01T17:19:01.389Z,100953.34
2023-02-01T17:21:32.963Z,100952.72
2023-02-01T17:24:01.785Z,100946.78
2023-02-01T17:26:30.253Z,100942.38
2023-02-01T17:29:00.131Z,100950.91
2023-02-01T17:31:29.934Z,100960.00
2023-02-01T17:33:58.434Z,100950.81
2023-02-01T17:36:27.160Z,100962.38
2023-02-01T17:39:05.314Z,100959.09
2023-02-01T17:41:35.804Z,100948.25
2023-02-01T17:44:06.263Z,100958.59
2023-02-01T17:46:34.859Z,100955.81
2023-02-01T17:49:03.823Z,100958.19
2023-02-01T17:51:32.959Z,100966.06
2023-02-01T17:54:01.583Z,100958.53
2023-02-01T17:56:31.172Z,100955.47
2023-02-01T17:59:00.874Z,100966.78
2023-02-01T18:01:34.335Z,100969.41
2023-02-01T18:04:02.906Z,100965.56
2023-02-01T18:06:37.565Z,100966.75
2023-02-01T18:09:07.408Z,100972.34
2023-02-01T18:11:35.894Z,100986.78
2023-02-01T18:14:04.439Z,101013.50
2023-02-01T18:16:35.669Z,101032.38
2023-02-01T18:19:05.115Z,101035.00
2023-02-01T18:21:36.273Z,101022.69
2023-02-01T18:24:05.536Z,100991.38
2023-02-01T18:26:34.124Z,100979.72
2023-02-01T18:29:02.623Z,100959.34
2023-02-01T18:31:35.529Z,100977.47
2023-02-01T18:34:04.466Z,101012.91
2023-02-01T18:36:32.932Z,100991.59
2023-02-01T18:39:05.775Z,100959.50
2023-02-01T18:41:34.618Z,100961.22
2023-02-01T18:44:04.422Z,100964.41
2023-02-01T18:46:34.400Z,100971.88
2023-02-01T18:49:03.627Z,100974.03
2023-02-01T18:51:32.285Z,100981.56
2023-02-01T18:54:00.897Z,100977.22
2023-02-01T18:56:29.425Z,100989.94
2023-02-01T18:59:00.036Z,100983.94
2023-02-01T19:01:28.601Z,100987.31
2023-02-01T19:04:01.457Z,100992.75
2023-02-01T19:06:33.178Z,100984.38
2023-02-01T19:09:01.684Z,100977.56
2023-02-01T19:11:30.615Z,100979.84
2023-02-01T19:13:59.323Z,100980.19
2023-02-01T19:16:27.874Z,100970.91
2023-02-01T19:18:58.260Z,100963.13
2023-02-01T19:21:26.801Z,100969.34
2023-02-01T19:23:55.274Z,100973.69
2023-02-01T19:26:23.776Z,100970.59
2023-02-01T19:28:52.634Z,100981.56
2023-02-01T19:31:21.417Z,100993.72
2023-02-01T19:33:50.101Z,101002.41
2023-02-01T19:36:19.961Z,101002.06
2023-02-01T19:38:48.430Z,101007.97
2023-02-01T19:41:16.878Z,100999.34
2023-02-01T19:43:45.703Z,100995.34
2023-02-01T19:46:14.300Z,101000.78
2023-02-01T19:48:42.999Z,100998.06
2023-02-01T19:51:12.738Z,100999.34
2023-02-01T19:53:42.882Z,100988.75
2023-02-01T19:56:11.781Z,100995.66
2023-02-01T19:58:40.649Z,100990.16
2023-02-01T20:01:08.405Z,100973.56
2023-02-01T20:03:37.185Z,100970.75
2023-02-01T20:06:07.414Z,100966.97
2023-02-01T20:08:36.169Z,100980.41
2023-02-01T20:11:10.243Z,100981.66
2023-02-01T20:13:39.125Z,100986.72
2023-02-01T20:16:08.130Z,100989.19
2023-02-01T20:18:38.981Z,100996.50
2023-02-01T20:21:08.518Z,100987.47
2023-02-01T20:23:38.202Z,100999.94
2023-02-01T20:26:12.292Z,100998.06
2023-02-01T20:28:42.247Z,100997.56
2023-02-01T20:31:12.361Z,100997.91
2023-02-01T20:33:41.938Z,101006.00
2023-02-01T20:36:11.502Z,101012.59
2023-02-01T20:38:40.402Z,101004.53
2023-02-01T20:41:11.340Z,100997.00
2023-02-01T20:43:42.872Z,101004.53
2023-02-01T20:46:11.568Z,101004.72
2023-02-01T20:48:44.259Z,101013.16
2023-02-01T20:51:14.818Z,101012.91
2023-02-01T20:53:44.527Z,101019.72
2023-02-01T20:56:15.533Z,101026.34
2023-02-01T20:58:44.812Z,101025.84
2023-02-01T21:01:13.688Z,101010.25
2023-02-01T21:03:43.134Z,101013.53
2023-02-01T21:06:13.247Z,101008.13
2023-02-01T21:08:42.350Z,101023.22
2023-02-01T21:11:13.271Z,101050.06
2023-02-01T21:13:50.898Z,101032.25
2023-02-01T21:16:23.634Z,101046.63
2023-02-01T21:18:53.589Z,101036.78
2023-02-01T21:21:23.379Z,101043.19
2023-02-01T21:23:53.128Z,101036.31
2023-02-01T21:26:24.239Z,101040.31
2023-02-01T21:28:56.736Z,101063.53
2023-02-01T21:31:30.703Z,101055.09
2023-02-01T21:34:00.349Z,101059.59
2023-02-01T21:36:32.165Z,101052.78
2023-02-01T21:39:03.612Z,101058.69
2023-02-01T21:41:51.916Z,101059.59
2023-02-01T21:44:23.376Z,101073.47
2023-02-01T21:46:52.658Z,101069.09
2023-02-01T21:49:22.959Z,101077.88
2023-02-01T21:51:51.970Z,101079.50
2023-02-01T21:54:20.991Z,101088.94
2023-02-01T21:56:51.176Z,101098.88
2023-02-01T21:59:20.449Z,101090.59
2023-02-01T22:01:51.668Z,101089.44
2023-02-01T22:04:20.216Z,101082.66
2023-02-01T22:06:48.851Z,101082.06
2023-02-01T22:09:19.067Z,101086.31
2023-02-01T22:11:49.881Z,101070.66
2023-02-01T22:14:19.092Z,101091.31
2023-02-01T22:16:50.624Z,101098.88
2023-02-01T22:19:20.559Z,101098.38
2023-02-01T22:21:49.781Z,101094.13
2023-02-01T22:24:21.598Z,101097.88
2023-02-01T22:26:51.131Z,101093.16
2023-02-01T22:29:21.275Z,101091.06
2023-02-01T22:31:52.275Z,101084.28
2023-02-01T22:34:22.169Z,101096.81
2023-02-01T22:36:50.761Z,101085.19
2023-02-01T22:39:19.242Z,101090.09
2023-02-01T22:41:47.824Z,101084.78
2023-02-01T22:44:17.251Z,101102.81
2023-02-01T22:46:46.897Z,101092.91
2023-02-01T22:49:17.561Z,101112.19
2023-02-01T22:51:46.444Z,101110.06
2023-02-01T22:54:18.832Z,101129.75
2023-02-01T22:56:48.776Z,101135.97
2023-02-01T22:59:17.578Z,101140.09
2023-02-01T23:02:03.448Z,101141.25
2023-02-01T23:04:46.953Z,101120.41
2023-02-01T23:07:15.558Z,101117.81
2023-02-01T23:09:45.813Z,101114.19
2023-02-01T23:12:14.629Z,101120.91
2023-02-01T23:14:57.108Z,101122.72
2023-02-01T23:17:25.827Z,101134.19
2023-02-01T23:19:55.802Z,101129.75
2023-02-01T23:22:24.304Z,101132.41
2023-02-01T23:24:53.172Z,101135.69
2023-02-01T23:27:21.791Z,101135.69
2023-02-01T23:29:50.533Z,101149.28
2023-02-01T23:32:19.250Z,101137.97
2023-02-01T23:34:47.998Z,101154.72
2023-02-01T23:37:17.934Z,101143.63
2023-02-01T23:39:46.488Z,101137.25
2023-02-01T23:42:15.316Z,101150.94
2023-02-01T23:44:43.104Z,101125.94
2023-02-01T23:47:12.386Z,101134.19
2023-02-01T23:49:41.201Z,101135.69
2023-02-01T23:52:10.675Z,101130.44
2023-02-01T23:54:44.331Z,101129.59
2023-02-01T23:57:13.007Z,101133.03
2023-02-01T23:59:41.552Z,101145.97
